Time;durP1;ratioP1;P1;durP2;ratioP2;P2;SDS_P1;SDS_P2;PMS_P1;PMS_P2;Temp;Humidity;BMP_temperature;BMP_pressure;BME280_temperature;BME280_humidity;BME280_pressure;Samples;Min_cycle;Max_cycle;Signal;HPM_P1;HPM_P2
2021/06/06 00:00:21;;;;;;;0.40;0.40;;;22.70;52.90;;;;;;6341320;28;20094;-66
2021/06/06 00:03:30;;;;;;;0.68;0.60;;;22.80;52.90;;;;;;6341834;28;20032;-66
2021/06/06 00:06:34;;;;;;;0.68;0.60;;;22.70;52.90;;;;;;6333137;28;20034;-66
2021/06/06 00:09:34;;;;;;;0.68;0.50;;;22.80;52.90;;;;;;6339130;28;20385;-66
2021/06/06 00:12:35;;;;;;;0.50;0.50;;;22.70;52.90;;;;;;6342587;28;20020;-66
2021/06/06 00:15:36;;;;;;;0.65;0.60;;;22.70;52.90;;;;;;6341528;28;20288;-66
2021/06/06 00:18:37;;;;;;;0.70;0.60;;;22.80;52.90;;;;;;6339522;28;20023;-66
2021/06/06 00:21:39;;;;;;;0.75;0.57;;;22.70;52.90;;;;;;6341995;28;20047;-66
2021/06/06 00:24:40;;;;;;;0.68;0.68;;;22.70;52.90;;;;;;6341521;28;20019;-66
2021/06/06 00:27:40;;;;;;;0.77;0.68;;;22.80;52.90;;;;;;6341784;28;20533;-66
2021/06/06 00:30:41;;;;;;;0.40;0.40;;;22.80;52.90;;;;;;6341702;28;20031;-66
2021/06/06 00:33:42;;;;;;;0.70;0.50;;;22.70;52.90;;;;;;6333390;28;20107;-66
2021/06/06 00:36:42;;;;;;;0.80;0.73;;;22.70;52.90;;;;;;6341396;28;20312;-66
2021/06/06 00:39:43;;;;;;;0.90;0.60;;;22.80;52.90;;;;;;6334231;28;20089;-66
2021/06/06 00:42:44;;;;;;;0.60;0.60;;;22.80;52.90;;;;;;6336467;28;20062;-66
2021/06/06 00:45:45;;;;;;;0.80;0.70;;;22.80;52.90;;;;;;6341345;28;20525;-66
2021/06/06 00:48:46;;;;;;;0.60;0.50;;;22.70;52.90;;;;;;6321612;28;20020;-66
2021/06/06 00:51:58;;;;;;;0.80;0.68;;;22.70;52.90;;;;;;6341141;28;20496;-66
2021/06/06 00:54:59;;;;;;;0.75;0.70;;;22.80;53.00;;;;;;6340526;28;20150;-66
2021/06/06 00:58:05;;;;;;;0.60;0.60;;;22.80;53.00;;;;;;6340732;28;20035;-66
2021/06/06 01:01:06;;;;;;;0.50;0.50;;;22.70;52.90;;;;;;6340497;28;20045;-66
2021/06/06 01:04:06;;;;;;;0.75;0.70;;;22.80;53.00;;;;;;6339447;28;20027;-66
2021/06/06 01:07:07;;;;;;;0.50;0.50;;;22.70;52.90;;;;;;6339273;28;20026;-66
2021/06/06 01:10:08;;;;;;;0.70;0.65;;;22.80;52.90;;;;;;6321633;28;20500;-66
2021/06/06 01:13:24;;;;;;;0.50;0.50;;;22.80;53.60;;;;;;6339650;28;20045;-66
2021/06/06 01:16:49;;;;;;;0.60;0.50;;;22.70;52.90;;;;;;6340666;28;20015;-66
2021/06/06 01:20:11;;;;;;;0.70;0.70;;;22.70;53.60;;;;;;6340152;28;20023;-66
2021/06/06 01:23:31;;;;;;;0.57;0.57;;;22.80;53.00;;;;;;6316248;28;20024;-66
2021/06/06 01:26:54;;;;;;;0.57;0.57;;;22.70;52.90;;;;;;6336435;28;20558;-66
2021/06/06 01:30:04;;;;;;;0.70;0.63;;;22.80;53.00;;;;;;6331153;28;20024;-66
2021/06/06 01:33:27;;;;;;;0.50;0.50;;;22.70;52.90;;;;;;6339453;28;20103;-67
2021/06/06 01:36:34;;;;;;;0.63;0.60;;;22.80;53.00;;;;;;6312090;28;20024;-66
2021/06/06 01:39:39;;;;;;;0.80;0.60;;;22.70;52.90;;;;;;6334025;28;20169;-69
2021/06/06 01:42:45;;;;;;;1.33;0.90;;;22.70;52.90;;;;;;6337013;28;20438;-68
2021/06/06 01:46:01;;;;;;;0.70;0.70;;;22.80;53.00;;;;;;6339533;28;20020;-69
2021/06/06 01:49:04;;;;;;;0.60;0.50;;;22.80;53.00;;;;;;6335676;28;20027;-68
2021/06/06 01:52:09;;;;;;;0.68;0.60;;;22.80;53.00;;;;;;6338592;28;20032;-69
2021/06/06 01:55:14;;;;;;;0.55;0.55;;;22.80;53.00;;;;;;6329194;28;20055;-68
2021/06/06 01:58:14;;;;;;;;;;;22.80;53.00;;;;;;6337990;28;20292;-69
2021/06/06 02:01:19;;;;;;;1.08;0.70;;;22.80;53.00;;;;;;6338837;28;19915;-69
2021/06/06 02:04:21;;;;;;;0.30;0.30;;;22.70;53.00;;;;;;6338529;28;20028;-68
2021/06/06 02:07:29;;;;;;;0.88;0.68;;;22.80;53.00;;;;;;6338708;28;20022;-68
2021/06/06 02:10:37;;;;;;;0.93;0.63;;;22.70;53.00;;;;;;6333280;28;20046;-69
2021/06/06 02:14:00;;;;;;;0.65;0.60;;;22.80;53.00;;;;;;6338854;28;20095;-69
2021/06/06 02:17:04;;;;;;;0.68;0.60;;;22.80;53.00;;;;;;6334026;28;20035;-68
2021/06/06 02:20:09;;;;;;;0.80;0.70;;;22.80;53.00;;;;;;6338441;28;20585;-69
2021/06/06 02:23:12;;;;;;;0.60;0.60;;;22.80;53.00;;;;;;6338860;28;20496;-68
2021/06/06 02:26:38;;;;;;;0.60;0.60;;;22.70;53.00;;;;;;6335195;28;20122;-69
2021/06/06 02:29:51;;;;;;;0.60;0.60;;;22.70;52.90;;;;;;6322949;28;20043;-69
2021/06/06 02:33:00;;;;;;;0.70;0.60;;;22.80;53.00;;;;;;6338464;28;20023;-69
2021/06/06 02:36:05;;;;;;;0.65;0.65;;;22.80;53.00;;;;;;6338726;28;20061;-69
2021/06/06 02:39:15;;;;;;;0.65;0.57;;;22.70;53.00;;;;;;6337102;28;20541;-69
2021/06/06 02:42:32;;;;;;;0.70;0.60;;;22.80;53.00;;;;;;6338639;28;20023;-69
2021/06/06 02:45:33;;;;;;;0.60;0.50;;;22.80;53.00;;;;;;6338420;28;20026;-68
2021/06/06 02:48:39;;;;;;;0.95;0.73;;;22.80;53.00;;;;;;6338838;28;20024;-68
2021/06/06 02:51:45;;;;;;;0.50;0.50;;;22.80;53.00;;;;;;6338125;28;20043;-69
2021/06/06 02:54:51;;;;;;;1.15;0.60;;;22.80;53.00;;;;;;6331002;28;20108;-68
2021/06/06 02:58:00;;;;;;;0.68;0.68;;;22.80;53.00;;;;;;6320256;28;20024;-68
2021/06/06 03:01:07;;;;;;;0.98;0.70;;;22.80;53.00;;;;;;6338290;28;20024;-68
2021/06/06 03:04:15;;;;;;;0.60;0.57;;;22.80;53.00;;;;;;6338523;28;20246;-68
2021/06/06 03:07:29;;;;;;;0.70;0.70;;;22.80;53.00;;;;;;6331447;28;20020;-69
2021/06/06 03:10:32;;;;;;;1.27;0.80;;;22.80;53.00;;;;;;6321501;28;20034;-68
2021/06/06 03:13:47;;;;;;;0.70;0.70;;;22.80;53.00;;;;;;6317286;28;20035;-69
2021/06/06 03:17:02;;;;;;;0.80;0.75;;;22.70;53.00;;;;;;6338791;28;20023;-68
2021/06/06 03:20:27;;;;;;;0.98;0.80;;;22.80;53.00;;;;;;6338318;28;20066;-68
2021/06/06 03:23:29;;;;;;;0.68;0.60;;;22.80;53.00;;;;;;6338206;28;20340;-68
2021/06/06 03:26:34;;;;;;;0.68;0.68;;;22.70;53.00;;;;;;6320075;28;20077;-68
2021/06/06 03:29:47;;;;;;;0.70;0.50;;;22.80;53.00;;;;;;6343034;28;20019;-68
2021/06/06 03:32:49;;;;;;;0.82;0.60;;;22.80;53.10;;;;;;6343447;28;20626;-68
2021/06/06 03:35:50;;;;;;;0.98;0.73;;;22.70;53.00;;;;;;6342848;28;20055;-69
2021/06/06 03:38:51;;;;;;;0.77;0.65;;;22.80;53.00;;;;;;6324708;28;20030;-69
2021/06/06 03:41:51;;;;;;;0.60;0.60;;;22.80;53.00;;;;;;6343110;28;20478;-68
2021/06/06 03:44:53;;;;;;;0.60;0.60;;;22.80;53.10;;;;;;6342864;28;20028;-68
2021/06/06 03:47:56;;;;;;;0.68;0.60;;;22.80;53.00;;;;;;6342253;28;20488;-68
2021/06/06 03:50:57;;;;;;;0.70;0.70;;;22.80;53.00;;;;;;6327765;28;20067;-68
2021/06/06 03:53:58;;;;;;;0.70;0.70;;;22.70;53.00;;;;;;6342058;28;20028;-68
2021/06/06 03:56:58;;;;;;;0.70;0.70;;;22.80;53.00;;;;;;6342119;28;20039;-68
2021/06/06 04:00:38;;;;;;;0.77;0.77;;;22.80;53.00;;;;;;6337270;28;20038;-68
2021/06/06 04:03:39;;;;;;;0.90;0.77;;;22.80;53.00;;;;;;6342411;28;20280;-68
2021/06/06 04:06:40;;;;;;;0.80;0.80;;;22.80;53.00;;;;;;6341900;28;20446;-69
2021/06/06 04:09:40;;;;;;;1.02;0.75;;;22.80;53.00;;;;;;6340843;28;20653;-68
2021/06/06 04:12:41;;;;;;;0.88;0.80;;;22.80;53.10;;;;;;6340554;28;20015;-68
2021/06/06 04:15:42;;;;;;;0.80;0.80;;;22.80;53.00;;;;;;6324038;28;20172;-69
2021/06/06 04:18:43;;;;;;;0.90;0.63;;;22.80;53.00;;;;;;6341832;28;20031;-69
2021/06/06 04:21:45;;;;;;;1.00;0.88;;;22.80;53.00;;;;;;6341652;28;20434;-68
2021/06/06 04:24:45;;;;;;;0.98;0.80;;;22.80;53.00;;;;;;6341791;28;20582;-69
2021/06/06 04:27:46;;;;;;;0.77;0.70;;;22.80;53.00;;;;;;6341583;28;20031;-68
2021/06/06 04:30:47;;;;;;;1.45;0.80;;;22.80;53.00;;;;;;6341323;28;20032;-69
2021/06/06 04:33:48;;;;;;;0.82;0.70;;;22.80;53.00;;;;;;6341197;28;20031;-69
2021/06/06 04:36:50;;;;;;;0.88;0.75;;;22.80;53.00;;;;;;6342123;28;20081;-69
2021/06/06 04:39:50;;;;;;;1.10;0.60;;;22.80;53.00;;;;;;6332630;28;20024;-68
2021/06/06 04:42:51;;;;;;;1.00;0.90;;;22.80;53.10;;;;;;6333812;28;20464;-68
2021/06/06 04:45:52;;;;;;;0.73;0.70;;;22.80;53.10;;;;;;6341270;28;20019;-68
2021/06/06 04:48:53;;;;;;;0.85;0.73;;;22.80;53.00;;;;;;6335604;28;20031;-69
2021/06/06 04:51:54;;;;;;;0.80;0.80;;;22.80;53.00;;;;;;6332438;28;20047;-69
2021/06/06 04:54:54;;;;;;;0.93;0.82;;;22.80;53.10;;;;;;6340745;28;20523;-69
2021/06/06 04:57:55;;;;;;;1.00;0.70;;;22.80;53.10;;;;;;6341068;28;20114;-68
2021/06/06 05:00:56;;;;;;;0.90;0.68;;;22.80;53.10;;;;;;6338154;28;20611;-69
2021/06/06 05:03:56;;;;;;;1.75;1.00;;;22.80;53.10;;;;;;6310484;28;20132;-68
2021/06/06 05:06:57;;;;;;;0.88;0.80;;;22.80;53.00;;;;;;6340531;28;20389;-69
2021/06/06 05:09:57;;;;;;;0.93;0.70;;;22.80;53.00;;;;;;6340581;28;20114;-69
2021/06/06 05:12:58;;;;;;;0.90;0.85;;;22.80;53.10;;;;;;6340034;28;20092;-68
2021/06/06 05:15:59;;;;;;;0.65;0.60;;;22.80;53.10;;;;;;6322005;28;20076;-68
2021/06/06 05:18:59;;;;;;;0.65;0.65;;;22.80;53.10;;;;;;6340362;28;20023;-69
2021/06/06 05:22:00;;;;;;;1.50;0.75;;;22.80;53.10;;;;;;6332218;28;20035;-69
2021/06/06 05:25:00;;;;;;;1.30;0.88;;;22.80;53.10;;;;;;6340191;28;20020;-68
2021/06/06 05:28:02;;;;;;;1.00;0.90;;;22.80;53.10;;;;;;6322253;28;20023;-68
2021/06/06 05:31:06;;;;;;;1.00;0.90;;;22.80;53.10;;;;;;6321442;28;20308;-68
2021/06/06 05:34:07;;;;;;;1.20;1.00;;;22.80;53.10;;;;;;6339875;28;20091;-69
2021/06/06 05:37:09;;;;;;;0.80;0.80;;;22.80;53.10;;;;;;6340243;28;20026;-68
2021/06/06 05:40:10;;;;;;;0.80;0.80;;;22.80;53.10;;;;;;6334063;28;20023;-69
2021/06/06 05:43:12;;;;;;;0.80;0.70;;;22.80;53.10;;;;;;6321868;28;20395;-69
2021/06/06 05:46:17;;;;;;;0.80;0.70;;;22.80;53.10;;;;;;6339690;28;20308;-69
2021/06/06 05:49:18;;;;;;;0.80;0.80;;;22.80;53.10;;;;;;6339610;28;20340;-69
2021/06/06 05:52:18;;;;;;;1.10;0.90;;;22.80;53.80;;;;;;6339063;28;20681;-68
2021/06/06 05:55:20;;;;;;;0.90;0.80;;;22.80;53.10;;;;;;6339422;28;20405;-68
2021/06/06 05:58:21;;;;;;;0.85;0.73;;;22.80;53.10;;;;;;6339582;28;20043;-69
2021/06/06 06:01:22;;;;;;;1.15;0.80;;;22.80;53.10;;;;;;6339076;28;20396;-68
2021/06/06 06:04:23;;;;;;;1.05;0.95;;;22.80;53.10;;;;;;6316571;28;20032;-69
2021/06/06 06:07:24;;;;;;;1.17;0.80;;;22.80;53.10;;;;;;6313803;28;20024;-68
2021/06/06 06:10:28;;;;;;;1.00;0.80;;;22.80;53.10;;;;;;6327716;28;20535;-69
2021/06/06 06:13:30;;;;;;;1.08;0.98;;;22.80;53.10;;;;;;6303619;28;20521;-69
2021/06/06 06:16:33;;;;;;;1.00;0.90;;;22.80;53.10;;;;;;6321971;28;20117;-69
2021/06/06 06:19:34;;;;;;;1.08;0.73;;;22.80;53.10;;;;;;6330803;28;20035;-69
2021/06/06 06:22:34;;;;;;;1.00;0.80;;;22.80;53.10;;;;;;6317608;28;20024;-68
2021/06/06 06:25:35;;;;;;;0.75;0.70;;;22.80;53.10;;;;;;6327248;28;20073;-69
2021/06/06 06:28:36;;;;;;;0.75;0.70;;;22.80;53.10;;;;;;6339016;28;20023;-68
2021/06/06 06:31:37;;;;;;;0.95;0.70;;;22.80;53.10;;;;;;6338642;28;20420;-69
2021/06/06 06:34:39;;;;;;;0.70;0.70;;;22.80;53.10;;;;;;6317760;28;20293;-68
2021/06/06 06:37:43;;;;;;;0.60;0.60;;;22.80;53.20;;;;;;6307820;28;20112;-69
2021/06/06 06:40:44;;;;;;;1.40;0.80;;;22.80;53.10;;;;;;6313402;28;20524;-69
2021/06/06 06:43:45;;;;;;;0.73;0.73;;;22.80;53.20;;;;;;6336740;28;20028;-68
2021/06/06 06:46:46;;;;;;;0.73;0.73;;;22.80;53.10;;;;;;6333219;28;20105;-68
2021/06/06 06:49:47;;;;;;;0.63;0.60;;;22.80;53.20;;;;;;6320189;28;20039;-69
2021/06/06 06:52:47;;;;;;;0.70;0.70;;;22.80;53.10;;;;;;6317231;28;20052;-68
2021/06/06 06:55:48;;;;;;;1.15;0.80;;;22.80;53.10;;;;;;6339416;28;20043;-67
2021/06/06 06:58:49;;;;;;;1.67;0.88;;;22.80;53.10;;;;;;6338912;28;20016;-67
2021/06/06 07:01:50;;;;;;;0.93;0.80;;;22.80;53.20;;;;;;6338007;28;20024;-67
2021/06/06 07:04:51;;;;;;;1.10;0.80;;;22.80;53.20;;;;;;6343702;28;20031;-67
2021/06/06 07:07:52;;;;;;;1.00;0.60;;;22.80;53.10;;;;;;6344097;28;20487;-67
2021/06/06 07:10:54;;;;;;;0.70;0.70;;;22.80;53.10;;;;;;6343287;28;20023;-66
2021/06/06 07:13:54;;;;;;;1.58;0.60;;;22.80;53.20;;;;;;6343376;28;20558;-67
2021/06/06 07:16:55;;;;;;;0.85;0.80;;;22.80;53.10;;;;;;6343897;28;20024;-67
2021/06/06 07:19:55;;;;;;;1.05;0.85;;;22.80;53.10;;;;;;6324662;28;20122;-67
2021/06/06 07:22:57;;;;;;;1.10;0.73;;;22.80;53.10;;;;;;6324819;28;20028;-67
2021/06/06 07:26:00;;;;;;;0.95;0.80;;;22.80;53.10;;;;;;6324874;28;20023;-67
2021/06/06 07:29:07;;;;;;;0.60;0.60;;;22.80;53.10;;;;;;6343389;28;20028;-67
2021/06/06 07:32:08;;;;;;;0.77;0.60;;;22.80;53.10;;;;;;6342387;28;20153;-66
2021/06/06 07:35:11;;;;;;;1.25;0.80;;;22.80;53.80;;;;;;6342795;28;20032;-67
2021/06/06 07:38:12;;;;;;;0.60;0.60;;;22.80;53.10;;;;;;6342792;28;20023;-67
2021/06/06 07:41:13;;;;;;;0.88;0.70;;;22.80;53.10;;;;;;6342580;28;20142;-67
2021/06/06 07:44:13;;;;;;;1.15;0.90;;;22.80;53.10;;;;;;6343043;28;20594;-66
2021/06/06 07:47:14;;;;;;;0.65;0.60;;;22.80;53.10;;;;;;6342383;28;20028;-67
2021/06/06 07:50:18;;;;;;;0.60;0.60;;;22.70;53.10;;;;;;6343178;28;20427;-67
2021/06/06 07:53:20;;;;;;;1.17;0.77;;;22.80;53.10;;;;;;6342412;28;20496;-67
2021/06/06 07:56:21;;;;;;;0.60;0.60;;;22.80;53.20;;;;;;6342542;28;20078;-67
2021/06/06 07:59:22;;;;;;;1.02;0.80;;;22.80;53.10;;;;;;6342396;28;20459;-67
2021/06/06 08:02:22;;;;;;;1.85;0.80;;;22.80;53.10;;;;;;6342018;28;20054;-67
2021/06/06 08:05:24;;;;;;;0.70;0.60;;;22.80;53.10;;;;;;6342315;28;20027;-67
2021/06/06 08:08:25;;;;;;;0.77;0.75;;;22.80;53.10;;;;;;6342616;28;20027;-66
2021/06/06 08:11:26;;;;;;;0.88;0.80;;;22.80;53.20;;;;;;6342099;28;20542;-67
2021/06/06 08:14:27;;;;;;;0.80;0.65;;;22.80;53.10;;;;;;6342104;28;20078;-67
2021/06/06 08:17:27;;;;;;;0.65;0.65;;;22.80;53.10;;;;;;6341411;28;20031;-67
2021/06/06 08:20:31;;;;;;;0.60;0.60;;;22.80;53.20;;;;;;6341895;28;20028;-66
2021/06/06 08:23:32;;;;;;;0.68;0.68;;;22.80;53.20;;;;;;6341744;28;20130;-67
2021/06/06 08:26:33;;;;;;;1.00;0.85;;;22.80;53.10;;;;;;6341598;28;20491;-66
2021/06/06 08:29:33;;;;;;;0.60;0.60;;;22.80;53.10;;;;;;6342267;28;20024;-67
2021/06/06 08:32:36;;;;;;;0.85;0.70;;;22.80;53.20;;;;;;6341029;28;20479;-67
2021/06/06 08:35:36;;;;;;;0.82;0.82;;;22.80;53.20;;;;;;6341783;28;20152;-66
2021/06/06 08:38:38;;;;;;;0.77;0.70;;;22.80;53.20;;;;;;6322922;28;20248;-67
2021/06/06 08:42:00;;;;;;;0.60;0.60;;;22.80;53.20;;;;;;6340606;28;20397;-66
2021/06/06 08:45:21;;;;;;;0.70;0.70;;;22.80;53.20;;;;;;6314289;28;20027;-66
2021/06/06 08:48:23;;;;;;;1.33;0.88;;;22.80;53.20;;;;;;6341731;28;20404;-67
2021/06/06 08:51:39;;;;;;;0.77;0.70;;;22.80;53.10;;;;;;6333775;28;20027;-67
2021/06/06 08:54:58;;;;;;;0.63;0.60;;;22.80;53.20;;;;;;6340991;28;20046;-67
2021/06/06 08:58:11;;;;;;;0.73;0.70;;;22.80;53.20;;;;;;6341033;28;20032;-67
2021/06/06 09:01:27;;;;;;;0.63;0.60;;;22.80;53.20;;;;;;6335176;28;20028;-67
2021/06/06 09:04:31;;;;;;;0.98;0.70;;;22.80;53.20;;;;;;6341160;28;20019;-67
2021/06/06 09:07:40;;;;;;;0.95;0.80;;;22.80;53.20;;;;;;6340774;28;20683;-67
2021/06/06 09:10:45;;;;;;;0.68;0.68;;;22.80;53.20;;;;;;6340035;28;20023;-67
2021/06/06 09:13:45;;;;;;;0.60;0.50;;;22.80;53.20;;;;;;6333740;28;20031;-67
2021/06/06 09:17:16;;;;;;;0.70;0.70;;;22.80;53.20;;;;;;6338984;28;20332;-68
2021/06/06 09:20:39;;;;;;;0.82;0.60;;;22.80;53.10;;;;;;6312220;28;20419;-67
2021/06/06 09:23:40;;;;;;;0.98;0.85;;;22.80;53.20;;;;;;6340570;28;20385;-67
2021/06/06 09:26:41;;;;;;;0.75;0.70;;;22.80;53.20;;;;;;6339681;28;20019;-67
2021/06/06 09:29:43;;;;;;;0.50;0.50;;;22.80;53.20;;;;;;6341283;28;20027;-67
2021/06/06 09:32:44;;;;;;;0.80;0.80;;;22.80;53.20;;;;;;6340532;28;20460;-66
2021/06/06 09:35:55;;;;;;;0.60;0.60;;;22.80;53.20;;;;;;6340496;28;20197;-67
2021/06/06 09:39:11;;;;;;;0.50;0.50;;;22.80;53.20;;;;;;6340779;28;20491;-67
2021/06/06 09:42:25;;;;;;;0.80;0.80;;;22.80;53.20;;;;;;6321616;28;20031;-67
2021/06/06 09:45:38;;;;;;;0.50;0.50;;;22.80;53.20;;;;;;6332167;28;20012;-67
2021/06/06 09:48:41;;;;;;;0.40;0.40;;;22.80;53.20;;;;;;6325239;28;20020;-67
2021/06/06 09:51:42;;;;;;;0.80;0.63;;;22.80;53.20;;;;;;6339720;28;20520;-67
2021/06/06 09:54:46;;;;;;;0.52;0.52;;;22.80;53.20;;;;;;6321782;28;20039;-66
2021/06/06 09:57:48;;;;;;;0.63;0.50;;;22.80;53.20;;;;;;6322424;28;20043;-66
2021/06/06 10:00:51;;;;;;;0.70;0.70;;;22.80;53.20;;;;;;6339584;28;20835;-66
2021/06/06 10:03:57;;;;;;;0.60;0.60;;;22.80;53.20;;;;;;6340601;28;20008;-67
2021/06/06 10:07:15;;;;;;;0.50;0.50;;;22.80;53.20;;;;;;6339702;28;20023;-67
2021/06/06 10:10:22;;;;;;;0.60;0.60;;;22.80;53.20;;;;;;6340389;28;20027;-66
2021/06/06 10:13:31;;;;;;;0.60;0.50;;;22.80;53.20;;;;;;6338793;28;20027;-65
2021/06/06 10:16:36;;;;;;;0.60;0.60;;;22.80;53.20;;;;;;6339767;28;20103;-65
2021/06/06 10:19:51;;;;;;;0.68;0.68;;;22.80;53.20;;;;;;6324480;28;20054;-65
2021/06/06 10:23:07;;;;;;;0.57;0.57;;;22.80;53.20;;;;;;6335914;28;20034;-65
2021/06/06 10:26:43;;;;;;;0.50;0.50;;;22.80;53.20;;;;;;6311530;28;20496;-65
2021/06/06 10:29:58;;;;;;;;;;;22.80;53.20;;;;;;6337339;28;20028;-65
2021/06/06 10:33:38;;;;;;;0.60;0.60;;;22.80;53.20;;;;;;6337511;28;20400;-67
2021/06/06 10:36:40;;;;;;;0.60;0.60;;;22.80;53.20;;;;;;6326201;28;20055;-66
2021/06/06 10:39:44;;;;;;;0.70;0.70;;;22.80;53.20;;;;;;6336931;28;20508;-67
2021/06/06 10:43:00;;;;;;;0.68;0.68;;;22.80;53.20;;;;;;6337430;28;20492;-65
2021/06/06 10:46:07;;;;;;;0.77;0.77;;;22.80;53.20;;;;;;6338039;28;20318;-67
2021/06/06 10:49:19;;;;;;;0.70;0.60;;;22.80;53.20;;;;;;6337336;28;20041;-65
2021/06/06 10:52:32;;;;;;;1.85;0.60;;;22.80;53.20;;;;;;6337524;28;20016;-67
2021/06/06 10:55:35;;;;;;;0.60;0.60;;;22.80;53.20;;;;;;6337381;28;20438;-66
2021/06/06 10:59:03;;;;;;;0.50;0.50;;;22.80;53.20;;;;;;6339168;28;20032;-68
2021/06/06 11:02:08;;;;;;;0.70;0.70;;;22.80;53.20;;;;;;6313359;28;20062;-66
2021/06/06 11:05:43;;;;;;;0.82;0.80;;;22.80;53.20;;;;;;6327795;28;20091;-66
2021/06/06 11:08:45;;;;;;;0.63;0.60;;;22.80;53.20;;;;;;6336616;28;20049;-66
2021/06/06 11:11:56;;;;;;;0.90;0.75;;;22.80;53.20;;;;;;6325280;28;20028;-66
2021/06/06 11:14:57;;;;;;;1.35;0.73;;;22.80;53.20;;;;;;6332510;28;20103;-67
2021/06/06 11:18:16;;;;;;;0.40;0.40;;;22.80;53.20;;;;;;6336351;28;20011;-67
2021/06/06 11:21:31;;;;;;;0.50;0.50;;;22.80;53.90;;;;;;6336363;28;20024;-66
2021/06/06 11:24:47;;;;;;;0.65;0.50;;;22.80;53.20;;;;;;6338324;28;20384;-66
2021/06/06 11:27:56;;;;;;;0.40;0.40;;;22.80;53.20;;;;;;6330276;28;20031;-66
2021/06/06 11:30:57;;;;;;;0.50;0.50;;;22.80;53.20;;;;;;6335251;28;20042;-66
2021/06/06 11:34:05;;;;;;;0.60;0.52;;;22.80;53.20;;;;;;6336726;28;20024;-64
2021/06/06 11:37:08;;;;;;;0.70;0.70;;;22.80;53.20;;;;;;6335953;28;20055;-65
2021/06/06 11:40:28;;;;;;;1.85;0.50;;;22.80;53.20;;;;;;6335197;28;20096;-65
2021/06/06 11:43:33;;;;;;;0.68;0.43;;;22.80;53.20;;;;;;6334488;28;20164;-65
2021/06/06 11:46:52;;;;;;;0.50;0.50;;;22.80;53.20;;;;;;6336633;28;20381;-65
2021/06/06 11:50:14;;;;;;;0.50;0.50;;;22.80;53.20;;;;;;6339492;28;20032;-65
2021/06/06 11:53:22;;;;;;;0.40;0.40;;;22.80;53.20;;;;;;6326980;28;20027;-65
2021/06/06 11:56:32;;;;;;;0.52;0.43;;;22.80;53.20;;;;;;6332655;28;20067;-65
2021/06/06 11:59:56;;;;;;;0.50;0.50;;;22.80;53.20;;;;;;6340899;28;20118;-65
2021/06/06 12:03:24;;;;;;;0.32;0.32;;;22.80;53.20;;;;;;6340608;28;20035;-65
2021/06/06 12:06:26;;;;;;;0.45;0.45;;;22.80;53.20;;;;;;6334390;28;20024;-65
2021/06/06 12:09:36;;;;;;;0.60;0.60;;;22.80;53.20;;;;;;6339398;28;20103;-65
2021/06/06 12:12:37;;;;;;;0.50;0.50;;;22.80;53.20;;;;;;6339908;28;20303;-73
2021/06/06 12:15:41;;;;;;;0.50;0.50;;;22.80;53.20;;;;;;6322002;28;20077;-71
2021/06/06 12:18:45;;;;;;;0.63;0.60;;;22.80;53.20;;;;;;6322232;28;20020;-69
2021/06/06 12:21:48;;;;;;;0.43;0.43;;;22.80;53.30;;;;;;6320888;28;20495;-64
2021/06/06 12:25:05;;;;;;;0.63;0.55;;;22.80;53.20;;;;;;6340208;28;20023;-65
2021/06/06 12:28:18;;;;;;;0.60;0.60;;;22.80;53.20;;;;;;6335717;28;20493;-66
2021/06/06 12:31:37;;;;;;;1.00;0.60;;;22.80;53.20;;;;;;6339973;28;20034;-64
2021/06/06 12:34:39;;;;;;;0.85;0.50;;;22.80;53.20;;;;;;6329923;28;20536;-69
2021/06/06 12:37:40;;;;;;;0.45;0.45;;;22.80;53.30;;;;;;6338728;28;20030;-69
2021/06/06 12:40:41;;;;;;;0.60;0.50;;;22.80;53.20;;;;;;6339460;28;20034;-69
2021/06/06 12:43:48;;;;;;;1.63;0.45;;;22.80;53.20;;;;;;6340108;28;20095;-69
2021/06/06 12:47:05;;;;;;;0.35;0.35;;;22.80;53.40;;;;;;6334159;28;20426;-65
2021/06/06 12:50:22;;;;;;;0.43;0.40;;;22.80;53.40;;;;;;6315471;28;20498;-67
2021/06/06 12:53:34;;;;;;;0.90;0.52;;;22.80;52.90;;;;;;6329412;28;20311;-64
2021/06/06 12:56:38;;;;;;;0.88;0.70;;;22.80;51.10;;;;;;6308713;28;20044;-65
2021/06/06 12:59:39;;;;;;;2.95;0.70;;;22.80;50.70;;;;;;6336462;28;20384;-65
2021/06/06 13:02:43;;;;;;;0.70;0.55;;;22.90;50.30;;;;;;6338158;28;20036;-65
2021/06/06 13:05:46;;;;;;;2.28;0.68;;;22.90;49.80;;;;;;6339170;28;20385;-65
2021/06/06 13:08:48;;;;;;;0.88;0.60;;;23.00;49.50;;;;;;6338679;28;20066;-65
2021/06/06 13:12:13;;;;;;;0.60;0.55;;;23.00;49.10;;;;;;6336980;28;20711;-66
2021/06/06 13:15:33;;;;;;;1.00;0.60;;;23.10;48.90;;;;;;6339872;28;20489;-66
2021/06/06 13:18:33;;;;;;;0.85;0.60;;;23.10;48.70;;;;;;6337950;28;20051;-66
2021/06/06 13:21:39;;;;;;;0.85;0.80;;;23.10;48.60;;;;;;6338126;28;20020;-76
2021/06/06 13:24:45;;;;;;;1.13;0.60;;;23.20;48.50;;;;;;6322232;28;20023;-71
2021/06/06 13:27:47;;;;;;;0.95;0.55;;;23.20;48.40;;;;;;6311532;28;20133;-71
2021/06/06 13:30:49;;;;;;;1.23;0.60;;;23.20;48.30;;;;;;6339567;28;20023;-71
2021/06/06 13:33:49;;;;;;;0.60;0.52;;;23.30;48.30;;;;;;6320070;28;20023;-72
2021/06/06 13:36:52;;;;;;;1.25;0.60;;;23.30;48.20;;;;;;6339020;28;20035;-71
2021/06/06 13:39:53;;;;;;;0.70;0.60;;;23.30;48.10;;;;;;6338868;28;20050;-73
2021/06/06 13:42:54;;;;;;;0.90;0.60;;;23.30;48.00;;;;;;6338891;28;20024;-71
2021/06/06 13:45:56;;;;;;;1.50;0.80;;;23.30;47.90;;;;;;6338078;28;20028;-72
2021/06/06 13:48:56;;;;;;;0.60;0.40;;;23.30;47.80;;;;;;6339299;28;20020;-71
2021/06/06 13:51:58;;;;;;;1.33;0.60;;;23.30;47.80;;;;;;6338842;28;20024;-71
2021/06/06 13:54:59;;;;;;;0.60;0.60;;;23.30;47.70;;;;;;6338746;28;20036;-71
2021/06/06 13:58:01;;;;;;;1.08;0.63;;;23.30;47.60;;;;;;6319821;28;20024;-71
2021/06/06 14:01:02;;;;;;;1.25;0.60;;;23.30;47.60;;;;;;6320429;28;20199;-71
2021/06/06 14:04:04;;;;;;;0.70;0.60;;;23.40;47.50;;;;;;6324844;27;20019;-75
2021/06/06 14:07:06;;;;;;;2.05;0.60;;;23.40;47.50;;;;;;6311537;28;20024;-72
2021/06/06 14:10:09;;;;;;;1.33;0.60;;;23.40;47.40;;;;;;6310507;28;20036;-71
2021/06/06 14:13:14;;;;;;;0.93;0.75;;;23.40;47.40;;;;;;6287939;28;20430;-73
2021/06/06 14:16:19;;;;;;;1.50;0.70;;;23.40;47.30;;;;;;6310443;28;20016;-74
2021/06/06 14:19:22;;;;;;;1.27;0.80;;;23.40;47.20;;;;;;6309315;28;20054;-74
2021/06/06 14:22:24;;;;;;;1.52;0.95;;;23.40;47.20;;;;;;6293014;28;20119;-71
2021/06/06 14:25:30;;;;;;;1.27;0.70;;;23.40;47.20;;;;;;6302060;28;20032;-71
2021/06/06 14:28:31;;;;;;;1.75;1.05;;;23.40;47.10;;;;;;6302195;28;20028;-71
2021/06/06 14:31:32;;;;;;;1.00;0.60;;;23.40;47.00;;;;;;6291687;28;20051;-71
2021/06/06 14:34:33;;;;;;;1.42;0.80;;;23.40;47.00;;;;;;6306095;28;20563;-70
2021/06/06 14:37:34;;;;;;;1.00;0.70;;;23.40;46.90;;;;;;6309060;28;20043;-66
2021/06/06 14:40:38;;;;;;;1.63;0.80;;;23.50;46.90;;;;;;6321302;28;20387;-66
2021/06/06 14:43:39;;;;;;;1.65;1.00;;;23.40;46.90;;;;;;6337874;28;20678;-66
2021/06/06 14:46:40;;;;;;;2.95;0.80;;;23.50;46.90;;;;;;6331735;28;20488;-67
2021/06/06 14:49:41;;;;;;;1.48;0.80;;;23.40;46.80;;;;;;6337033;28;20023;-64
2021/06/06 14:52:41;;;;;;;2.30;1.02;;;23.40;46.80;;;;;;6319800;28;20035;-66
2021/06/06 14:55:44;;;;;;;1.77;0.82;;;23.50;46.80;;;;;;6337574;28;20932;-66
2021/06/06 14:58:45;;;;;;;2.75;1.20;;;23.50;46.70;;;;;;6337864;28;20406;-66
2021/06/06 15:01:46;;;;;;;2.53;0.80;;;23.50;46.70;;;;;;6319445;28;20035;-67
2021/06/06 15:04:46;;;;;;;2.58;1.30;;;23.50;46.60;;;;;;6337356;28;20577;-65
2021/06/06 15:07:48;;;;;;;2.53;0.93;;;23.50;46.50;;;;;;6356096;28;20020;-68
2021/06/06 15:10:53;;;;;;;2.10;1.02;;;23.50;46.50;;;;;;6336784;28;20035;-67
2021/06/06 15:13:53;;;;;;;4.57;1.38;;;23.50;46.50;;;;;;6319724;28;20035;-66
2021/06/06 15:16:54;;;;;;;2.83;1.13;;;23.50;46.50;;;;;;6337332;28;20649;-65
2021/06/06 15:19:58;;;;;;;2.75;1.20;;;23.50;46.50;;;;;;6337469;28;20679;-66
2021/06/06 15:23:03;;;;;;;2.72;1.40;;;23.50;46.40;;;;;;6337714;28;20026;-65
2021/06/06 15:26:07;;;;;;;2.80;1.20;;;23.50;46.40;;;;;;6341758;28;20019;-66
2021/06/06 15:29:09;;;;;;;4.13;1.27;;;23.50;46.40;;;;;;6341818;28;20464;-65
2021/06/06 15:32:10;;;;;;;2.75;1.20;;;23.50;46.30;;;;;;6330403;28;20381;-66
2021/06/06 15:35:15;;;;;;;2.63;1.42;;;23.50;46.30;;;;;;6337460;28;20023;-65
2021/06/06 15:38:16;;;;;;;;;;;23.50;46.20;;;;;;6341566;28;20545;-65
2021/06/06 15:41:21;;;;;;;5.78;1.75;;;23.50;46.10;;;;;;6342919;28;19908;-66
2021/06/06 15:44:22;;;;;;;3.65;1.45;;;23.50;46.10;;;;;;6343709;28;20116;-65
2021/06/06 15:47:23;;;;;;;4.75;1.70;;;23.50;46.10;;;;;;6341561;28;20023;-66
2021/06/06 15:50:29;;;;;;;2.92;1.48;;;23.50;46.20;;;;;;6340718;28;20031;-65
2021/06/06 15:53:29;;;;;;;3.95;1.90;;;23.50;46.10;;;;;;6336676;28;20019;-66
2021/06/06 15:56:30;;;;;;;4.93;1.77;;;23.50;46.00;;;;;;6341510;28;20067;-66
2021/06/06 15:59:32;;;;;;;2.97;1.52;;;23.50;46.00;;;;;;6341271;28;20100;-65
2021/06/06 16:02:33;;;;;;;6.05;2.10;;;23.50;46.00;;;;;;6341527;28;20023;-66
2021/06/06 16:05:34;;;;;;;4.10;2.05;;;23.50;46.00;;;;;;6342124;28;20036;-66